Conmar Elbe — 5BQU3 — position and weather

sailwx.info

Track history (hours):
 
Tides and Currents Weather Stations Pressure Air Temp Water Temp Dewpoint Dewpoint Depression Visibility Wind Speed Wind Dir Waves Ship Positions

Conmar Elbe

Last reported at 2018-Jun-20 04:59 UTC. Time now 2018-Jun-20 05:23 UTC.
Position N 28°29' W 016°13'.

Length 133 m; draft 5.6 m.

Type: Ship (hazmat cat A). MMSI: 209724000.

Date/timePositionNaut miles runAvg speedWind from/ knotsBaromVisibWave heightAir tempDewpointWater temp
2018-Jun-20 04:59N 28°29' W 016°13'0 0.0
2018-Jun-20 04:29N 28°29' W 016°13'0 0.0
2018-Jun-20 03:59N 28°29' W 016°13'0 0.0
2018-Jun-20 03:29N 28°29' W 016°13'0 0.0
2018-Jun-20 02:59N 28°29' W 016°13'0 0.0
2018-Jun-20 02:29N 28°29' W 016°13'0 0.0
2018-Jun-20 01:59N 28°29' W 016°13'0 0.0
2018-Jun-20 01:29N 28°29' W 016°13'0 0.0
2018-Jun-20 00:59N 28°29' W 016°13'0 0.0
2018-Jun-20 00:29N 28°29' W 016°13'0 0.0
2018-Jun-19 23:59N 28°29' W 016°13'0 0.0
2018-Jun-19 23:26N 28°29' W 016°13'0 0.0
2018-Jun-19 22:59N 28°29' W 016°13'0 0.0
2018-Jun-19 22:29N 28°29' W 016°13'0 0.0
2018-Jun-19 21:59N 28°29' W 016°13'0 0.0
2018-Jun-19 21:29N 28°29' W 016°13'0 0.0
2018-Jun-19 20:59N 28°29' W 016°13'0 0.0
2018-Jun-19 20:29N 28°29' W 016°13'0 0.0
2018-Jun-19 19:59N 28°29' W 016°13'0 0.0
2018-Jun-19 19:29N 28°29' W 016°13'0 0.0
2018-Jun-19 18:59N 28°29' W 016°13'0 0.0
2018-Jun-19 18:29N 28°29' W 016°13'0 1.0
2018-Jun-19 18:01N 28°29' W 016°14'2 4.3
2018-Jun-19 17:31N 28°28' W 016°12'0 1.0
2018-Jun-19 17:00N 28°28' W 016°11'2 3.2
2018-Jun-19 16:30N 28°27' W 016°10'815.7
2018-Jun-19 16:00N 28°24' W 016°02'815.8
2018-Jun-19 15:30N 28°21' W 015°53'815.7
2018-Jun-19 15:00N 28°18' W 015°45'815.5
2018-Jun-19 14:30N 28°16' W 015°36'815.5
2018-Jun-19 14:00N 28°13' W 015°28'612.9
2018-Jun-19 13:30N 28°09' W 015°23'2 3.0
2018-Jun-19 12:53N 28°09' W 015°25'0 0.0
2018-Jun-19 12:23N 28°09' W 015°25'0 0.0
2018-Jun-19 11:53N 28°09' W 015°25'0 0.0
2018-Jun-19 11:20N 28°09' W 015°25'0 0.0
2018-Jun-19 10:53N 28°09' W 015°25'0 0.0
2018-Jun-19 10:26N 28°09' W 015°25'0 0.0
2018-Jun-19 09:53N 28°09' W 015°25'0 0.0
2018-Jun-19 09:26N 28°09' W 015°25'0 0.0
2018-Jun-19 08:56N 28°09' W 015°25'0 0.0
2018-Jun-19 08:26N 28°09' W 015°25'0 0.0
2018-Jun-19 07:56N 28°09' W 015°25'0 0.0
2018-Jun-19 07:26N 28°09' W 015°25'0 0.0
2018-Jun-19 06:59N 28°09' W 015°25'0 0.0
2018-Jun-19 06:29N 28°09' W 015°25'0 0.0
2018-Jun-19 05:59N 28°09' W 015°25'0 0.0
2018-Jun-19 05:29N 28°09' W 015°25'2 3.7
2018-Jun-19 05:00N 28°07' W 015°24'5 9.9
2018-Jun-19 04:30N 28°11' W 015°19'714.0
2018-Jun-19 04:00N 28°16' W 015°14'713.9
2018-Jun-19 03:30N 28°21' W 015°09'713.9
2018-Jun-19 03:00N 28°26' W 015°04'714.6
2018-Jun-19 02:30N 28°32' W 014°58'714.3
2018-Jun-19 02:00N 28°37' W 014°53'713.4
2018-Jun-19 01:30N 28°42' W 014°48'712.7
2018-Jun-19 00:59N 28°47' W 014°43'  
2018-Jun-13 14:01N 28°43' W 015°47'014.9
2018-Jun-13 14:01N 28°43' W 015°48'1014.7
2018-Jun-13 13:18N 28°36' W 015°56'414.7
2018-Jun-13 13:00N 28°33' W 016°00'715.1
2018-Jun-13 12:31N 28°30' W 016°08'510.0
2018-Jun-13 12:00N 28°29' W 016°13'0 0.1
2018-Jun-13 11:28N 28°29' W 016°13'0 0.0
2018-Jun-13 10:59N 28°29' W 016°13'0 0.0
2018-Jun-13 10:28N 28°29' W 016°13'0 0.0
2018-Jun-13 09:58N 28°29' W 016°13'0 0.0
2018-Jun-13 09:28N 28°29' W 016°13'0 0.0
2018-Jun-13 08:58N 28°29' W 016°13'0 0.0
2018-Jun-13 08:28N 28°29' W 016°13'0 0.0
2018-Jun-13 07:59N 28°29' W 016°13'0 0.0
2018-Jun-13 07:28N 28°29' W 016°13'0 0.0
2018-Jun-13 06:58N 28°29' W 016°13'0 0.0
2018-Jun-13 06:29N 28°29' W 016°13'0 0.0
2018-Jun-13 05:59N 28°29' W 016°13'0 0.0
2018-Jun-13 05:28N 28°29' W 016°13'0 0.0
2018-Jun-13 04:58N 28°29' W 016°13'0 0.0
2018-Jun-13 04:28N 28°29' W 016°13'0 0.0
2018-Jun-13 03:58N 28°29' W 016°13'0 0.0
2018-Jun-13 03:28N 28°29' W 016°13'0 0.0
2018-Jun-13 02:58N 28°29' W 016°13'0 0.0
2018-Jun-13 02:28N 28°29' W 016°13'0 0.0
2018-Jun-13 01:58N 28°29' W 016°13'0 0.0
2018-Jun-13 01:28N 28°29' W 016°13'0 0.0
2018-Jun-13 00:58N 28°29' W 016°13'0 0.0
2018-Jun-13 00:28N 28°29' W 016°13'0 0.0
2018-Jun-12 23:58N 28°29' W 016°13'0 0.0
2018-Jun-12 23:28N 28°29' W 016°13'0 0.0
2018-Jun-12 22:58N 28°29' W 016°13'0 0.0
2018-Jun-12 22:28N 28°29' W 016°13'0 0.0
2018-Jun-12 21:58N 28°29' W 016°13'0 0.0
2018-Jun-12 21:28N 28°29' W 016°13'0 0.0
2018-Jun-12 20:58N 28°29' W 016°13'0 0.0
2018-Jun-12 20:28N 28°29' W 016°13'0 0.0
2018-Jun-12 19:58N 28°29' W 016°13'0 0.0
2018-Jun-12 19:28N 28°29' W 016°13'0 0.0
2018-Jun-12 18:58N 28°29' W 016°13'0 0.0
2018-Jun-12 18:28N 28°29' W 016°13'0 0.0
2018-Jun-12 17:58N 28°29' W 016°13'0 0.0
2018-Jun-12 17:28N 28°29' W 016°13'0 0.0
2018-Jun-12 16:58N 28°29' W 016°13'0 0.0
2018-Jun-12 16:28N 28°29' W 016°13'0 0.4
2018-Jun-12 16:00N 28°29' W 016°13'3 5.8
2018-Jun-12 15:30N 28°27' W 016°11'815.0
2018-Jun-12 15:00N 28°25' W 016°03'815.8
2018-Jun-12 14:30N 28°22' W 015°55'815.7
2018-Jun-12 14:00N 28°19' W 015°47'815.6
2018-Jun-12 13:30N 28°16' W 015°38'815.2
2018-Jun-12 12:59N 28°14' W 015°30'714.6
2018-Jun-12 12:30N 28°10' W 015°23'2 4.7
2018-Jun-12 12:01N 28°09' W 015°25'0 0.1
2018-Jun-12 11:28N 28°09' W 015°25'0 0.0
2018-Jun-12 10:58N 28°09' W 015°25'0 0.0
2018-Jun-12 10:28N 28°09' W 015°25'0 0.0
2018-Jun-12 09:58N 28°09' W 015°25'0 0.0
2018-Jun-12 09:19N 28°09' W 015°25'0 0.0
2018-Jun-12 08:49N 28°09' W 015°25'0 0.0
2018-Jun-12 08:28N 28°09' W 015°25'0 0.0
2018-Jun-12 07:49N 28°09' W 015°25'0 0.0
2018-Jun-12 07:22N 28°09' W 015°25'0 0.0
2018-Jun-12 06:52N 28°09' W 015°25'0 0.0
2018-Jun-12 06:22N 28°09' W 015°25'0 0.0
2018-Jun-12 05:52N 28°09' W 015°25'0 0.0
2018-Jun-12 05:22N 28°09' W 015°25'0 0.0
2018-Jun-12 04:52N 28°09' W 015°25'0 0.0
2018-Jun-12 04:22N 28°09' W 015°25'0 0.0
2018-Jun-12 03:55N 28°09' W 015°25'0 0.0
2018-Jun-12 03:25N 28°09' W 015°25'0 0.0
2018-Jun-12 02:55N 28°09' W 015°25'0 0.0
2018-Jun-12 02:30N 28°09' W 015°25'0 0.0
2018-Jun-12 02:00N 28°09' W 015°25'0 0.0
2018-Jun-12 01:30N 28°09' W 015°25'0 0.0
2018-Jun-12 01:00N 28°09' W 015°25'0 0.0
2018-Jun-12 00:30N 28°09' W 015°25'0 0.0
2018-Jun-12 00:01N 28°09' W 015°25'0 0.0
2018-Jun-11 23:30N 28°09' W 015°25'0 0.0
2018-Jun-11 23:00N 28°09' W 015°25'0 0.0
2018-Jun-11 22:30N 28°09' W 015°25'0 0.0
2018-Jun-11 22:01N 28°09' W 015°25'0 0.0
2018-Jun-11 21:30N 28°09' W 015°25'0 0.0
2018-Jun-11 21:01N 28°09' W 015°25'0 0.0
2018-Jun-11 20:30N 28°09' W 015°25'0 0.5
2018-Jun-11 20:01N 28°09' W 015°25'2 4.5
2018-Jun-11 19:30N 28°08' W 015°22'612.7
2018-Jun-11 19:00N 28°12' W 015°18'815.7
2018-Jun-11 18:30N 28°18' W 015°12'815.7
2018-Jun-11 18:00N 28°24' W 015°06'815.5
2018-Jun-11 17:30N 28°30' W 015°00'815.4
2018-Jun-11 17:00N 28°36' W 014°55'  
Track history (hours):
 
Tides and Currents Weather Stations Pressure Air Temp Water Temp Dewpoint Dewpoint Depression Visibility Wind Speed Wind Dir Waves Ship Positions

Conmar Elbe

Last reported at 2018-Jun-20 04:59 UTC. Time now 2018-Jun-20 05:23 UTC.
Position N 28°29' W 016°13'.

Length 133 m; draft 5.6 m.

Type: Ship (hazmat cat A). MMSI: 209724000.

Date/timePositionNaut miles runAvg speedWind from/ knotsBaromVisibWave heightAir tempDewpointWater temp
2018-Jun-20 04:59N 28°29' W 016°13'0 0.0
2018-Jun-20 04:29N 28°29' W 016°13'0 0.0
2018-Jun-20 03:59N 28°29' W 016°13'0 0.0
2018-Jun-20 03:29N 28°29' W 016°13'0 0.0
2018-Jun-20 02:59N 28°29' W 016°13'0 0.0
2018-Jun-20 02:29N 28°29' W 016°13'0 0.0
2018-Jun-20 01:59N 28°29' W 016°13'0 0.0
2018-Jun-20 01:29N 28°29' W 016°13'0 0.0
2018-Jun-20 00:59N 28°29' W 016°13'0 0.0
2018-Jun-20 00:29N 28°29' W 016°13'0 0.0
2018-Jun-19 23:59N 28°29' W 016°13'0 0.0
2018-Jun-19 23:26N 28°29' W 016°13'0 0.0
2018-Jun-19 22:59N 28°29' W 016°13'0 0.0
2018-Jun-19 22:29N 28°29' W 016°13'0 0.0
2018-Jun-19 21:59N 28°29' W 016°13'0 0.0
2018-Jun-19 21:29N 28°29' W 016°13'0 0.0
2018-Jun-19 20:59N 28°29' W 016°13'0 0.0
2018-Jun-19 20:29N 28°29' W 016°13'0 0.0
2018-Jun-19 19:59N 28°29' W 016°13'0 0.0
2018-Jun-19 19:29N 28°29' W 016°13'0 0.0
2018-Jun-19 18:59N 28°29' W 016°13'0 0.0
2018-Jun-19 18:29N 28°29' W 016°13'0 1.0
2018-Jun-19 18:01N 28°29' W 016°14'2 4.3
2018-Jun-19 17:31N 28°28' W 016°12'0 1.0
2018-Jun-19 17:00N 28°28' W 016°11'2 3.2
2018-Jun-19 16:30N 28°27' W 016°10'815.7
2018-Jun-19 16:00N 28°24' W 016°02'815.8
2018-Jun-19 15:30N 28°21' W 015°53'815.7
2018-Jun-19 15:00N 28°18' W 015°45'815.5
2018-Jun-19 14:30N 28°16' W 015°36'815.5
2018-Jun-19 14:00N 28°13' W 015°28'612.9
2018-Jun-19 13:30N 28°09' W 015°23'2 3.0
2018-Jun-19 12:53N 28°09' W 015°25'0 0.0
2018-Jun-19 12:23N 28°09' W 015°25'0 0.0
2018-Jun-19 11:53N 28°09' W 015°25'0 0.0
2018-Jun-19 11:20N 28°09' W 015°25'0 0.0
2018-Jun-19 10:53N 28°09' W 015°25'0 0.0
2018-Jun-19 10:26N 28°09' W 015°25'0 0.0
2018-Jun-19 09:53N 28°09' W 015°25'0 0.0
2018-Jun-19 09:26N 28°09' W 015°25'0 0.0
2018-Jun-19 08:56N 28°09' W 015°25'0 0.0
2018-Jun-19 08:26N 28°09' W 015°25'0 0.0
2018-Jun-19 07:56N 28°09' W 015°25'0 0.0
2018-Jun-19 07:26N 28°09' W 015°25'0 0.0
2018-Jun-19 06:59N 28°09' W 015°25'0 0.0
2018-Jun-19 06:29N 28°09' W 015°25'0 0.0
2018-Jun-19 05:59N 28°09' W 015°25'0 0.0
2018-Jun-19 05:29N 28°09' W 015°25'2 3.7
2018-Jun-19 05:00N 28°07' W 015°24'5 9.9
2018-Jun-19 04:30N 28°11' W 015°19'714.0
2018-Jun-19 04:00N 28°16' W 015°14'713.9
2018-Jun-19 03:30N 28°21' W 015°09'713.9
2018-Jun-19 03:00N 28°26' W 015°04'714.6
2018-Jun-19 02:30N 28°32' W 014°58'714.3
2018-Jun-19 02:00N 28°37' W 014°53'713.4
2018-Jun-19 01:30N 28°42' W 014°48'712.7
2018-Jun-19 00:59N 28°47' W 014°43'  
2018-Jun-13 14:01N 28°43' W 015°47'014.9
2018-Jun-13 14:01N 28°43' W 015°48'1014.7
2018-Jun-13 13:18N 28°36' W 015°56'414.7
2018-Jun-13 13:00N 28°33' W 016°00'715.1
2018-Jun-13 12:31N 28°30' W 016°08'510.0
2018-Jun-13 12:00N 28°29' W 016°13'0 0.1
2018-Jun-13 11:28N 28°29' W 016°13'0 0.0
2018-Jun-13 10:59N 28°29' W 016°13'0 0.0
2018-Jun-13 10:28N 28°29' W 016°13'0 0.0
2018-Jun-13 09:58N 28°29' W 016°13'0 0.0
2018-Jun-13 09:28N 28°29' W 016°13'0 0.0
2018-Jun-13 08:58N 28°29' W 016°13'0 0.0
2018-Jun-13 08:28N 28°29' W 016°13'0 0.0
2018-Jun-13 07:59N 28°29' W 016°13'0 0.0
2018-Jun-13 07:28N 28°29' W 016°13'0 0.0
2018-Jun-13 06:58N 28°29' W 016°13'0 0.0
2018-Jun-13 06:29N 28°29' W 016°13'0 0.0
2018-Jun-13 05:59N 28°29' W 016°13'0 0.0
2018-Jun-13 05:28N 28°29' W 016°13'0 0.0
2018-Jun-13 04:58N 28°29' W 016°13'0 0.0
2018-Jun-13 04:28N 28°29' W 016°13'0 0.0
2018-Jun-13 03:58N 28°29' W 016°13'0 0.0
2018-Jun-13 03:28N 28°29' W 016°13'0 0.0
2018-Jun-13 02:58N 28°29' W 016°13'0 0.0
2018-Jun-13 02:28N 28°29' W 016°13'0 0.0
2018-Jun-13 01:58N 28°29' W 016°13'0 0.0
2018-Jun-13 01:28N 28°29' W 016°13'0 0.0
2018-Jun-13 00:58N 28°29' W 016°13'0 0.0
2018-Jun-13 00:28N 28°29' W 016°13'0 0.0
2018-Jun-12 23:58N 28°29' W 016°13'0 0.0
2018-Jun-12 23:28N 28°29' W 016°13'0 0.0
2018-Jun-12 22:58N 28°29' W 016°13'0 0.0
2018-Jun-12 22:28N 28°29' W 016°13'0 0.0
2018-Jun-12 21:58N 28°29' W 016°13'0 0.0
2018-Jun-12 21:28N 28°29' W 016°13'0 0.0
2018-Jun-12 20:58N 28°29' W 016°13'0 0.0
2018-Jun-12 20:28N 28°29' W 016°13'0 0.0
2018-Jun-12 19:58N 28°29' W 016°13'0 0.0
2018-Jun-12 19:28N 28°29' W 016°13'0 0.0
2018-Jun-12 18:58N 28°29' W 016°13'0 0.0
2018-Jun-12 18:28N 28°29' W 016°13'0 0.0
2018-Jun-12 17:58N 28°29' W 016°13'0 0.0
2018-Jun-12 17:28N 28°29' W 016°13'0 0.0
2018-Jun-12 16:58N 28°29' W 016°13'0 0.0
2018-Jun-12 16:28N 28°29' W 016°13'0 0.4
2018-Jun-12 16:00N 28°29' W 016°13'3 5.8
2018-Jun-12 15:30N 28°27' W 016°11'815.0
2018-Jun-12 15:00N 28°25' W 016°03'815.8
2018-Jun-12 14:30N 28°22' W 015°55'815.7
2018-Jun-12 14:00N 28°19' W 015°47'815.6
2018-Jun-12 13:30N 28°16' W 015°38'815.2
2018-Jun-12 12:59N 28°14' W 015°30'714.6
2018-Jun-12 12:30N 28°10' W 015°23'2 4.7
2018-Jun-12 12:01N 28°09' W 015°25'0 0.1
2018-Jun-12 11:28N 28°09' W 015°25'0 0.0
2018-Jun-12 10:58N 28°09' W 015°25'0 0.0
2018-Jun-12 10:28N 28°09' W 015°25'0 0.0
2018-Jun-12 09:58N 28°09' W 015°25'0 0.0
2018-Jun-12 09:19N 28°09' W 015°25'0 0.0
2018-Jun-12 08:49N 28°09' W 015°25'0 0.0
2018-Jun-12 08:28N 28°09' W 015°25'0 0.0
2018-Jun-12 07:49N 28°09' W 015°25'0 0.0
2018-Jun-12 07:22N 28°09' W 015°25'0 0.0
2018-Jun-12 06:52N 28°09' W 015°25'0 0.0
2018-Jun-12 06:22N 28°09' W 015°25'0 0.0
2018-Jun-12 05:52N 28°09' W 015°25'0 0.0
2018-Jun-12 05:22N 28°09' W 015°25'0 0.0
2018-Jun-12 04:52N 28°09' W 015°25'0 0.0
2018-Jun-12 04:22N 28°09' W 015°25'0 0.0
2018-Jun-12 03:55N 28°09' W 015°25'0 0.0
2018-Jun-12 03:25N 28°09' W 015°25'0 0.0
2018-Jun-12 02:55N 28°09' W 015°25'0 0.0
2018-Jun-12 02:30N 28°09' W 015°25'0 0.0
2018-Jun-12 02:00N 28°09' W 015°25'0 0.0
2018-Jun-12 01:30N 28°09' W 015°25'0 0.0
2018-Jun-12 01:00N 28°09' W 015°25'0 0.0
2018-Jun-12 00:30N 28°09' W 015°25'0 0.0
2018-Jun-12 00:01N 28°09' W 015°25'0 0.0
2018-Jun-11 23:30N 28°09' W 015°25'0 0.0
2018-Jun-11 23:00N 28°09' W 015°25'0 0.0
2018-Jun-11 22:30N 28°09' W 015°25'0 0.0
2018-Jun-11 22:01N 28°09' W 015°25'0 0.0
2018-Jun-11 21:30N 28°09' W 015°25'0 0.0
2018-Jun-11 21:01N 28°09' W 015°25'0 0.0
2018-Jun-11 20:30N 28°09' W 015°25'0 0.5
2018-Jun-11 20:01N 28°09' W 015°25'2 4.5
2018-Jun-11 19:30N 28°08' W 015°22'612.7
2018-Jun-11 19:00N 28°12' W 015°18'815.7
2018-Jun-11 18:30N 28°18' W 015°12'815.7
2018-Jun-11 18:00N 28°24' W 015°06'815.5
2018-Jun-11 17:30N 28°30' W 015°00'815.4
2018-Jun-11 17:00N 28°36' W 014°55'  

Dump ship's entire track history